Time;durP1;ratioP1;P1;durP2;ratioP2;P2;SDS_P1;SDS_P2;PMS_P1;PMS_P2;Temp;Humidity;BMP_temperature;BMP_pressure;BME280_temperature;BME280_humidity;BME280_pressure;Samples;Min_cycle;Max_cycle;Signal;HPM_P1;HPM_P2
2023/05/01 00:00:27;;;;;;;11.80;6.30;;;;;;;5.57;67.68;101295.84;97370;1271;10001779;-79
2023/05/01 00:03:16;;;;;;;10.80;5.80;;;;;;;5.58;67.53;101297.24;104571;1269;99318;-78
2023/05/01 00:06:03;;;;;;;8.90;5.70;;;;;;;5.59;67.39;101297.49;105073;1273;98029;-78
2023/05/01 00:08:49;;;;;;;10.80;5.30;;;;;;;5.59;67.33;101296.77;104686;1268;98453;-77
2023/05/01 00:11:36;;;;;;;12.10;6.00;;;;;;;5.58;67.32;101298.46;104569;1268;102093;-79
2023/05/01 00:14:22;;;;;;;13.70;7.80;;;;;;;5.55;67.17;101297.63;104638;1268;99880;-76
2023/05/01 00:17:07;;;;;;;14.90;7.20;;;;;;;5.52;67.25;101298.27;104620;1268;97982;-77
2023/05/01 00:19:53;;;;;;;12.30;6.30;;;;;;;5.47;67.35;101299.45;104404;1268;98625;-77
2023/05/01 00:22:39;;;;;;;12.50;6.50;;;;;;;5.40;67.37;101299.48;104570;1273;98508;-79
2023/05/01 00:25:24;;;;;;;12.50;6.30;;;;;;;5.36;67.53;101298.40;104883;1269;102780;-79
2023/05/01 00:28:10;;;;;;;12.00;6.30;;;;;;;5.30;67.68;101297.02;104670;1271;99134;-78
2023/05/01 00:30:56;;;;;;;12.50;6.00;;;;;;;5.24;68.04;101295.27;104608;1268;98016;-77
2023/05/01 00:33:42;;;;;;;14.90;6.20;;;;;;;5.19;68.29;101296.28;104418;1271;97974;-79
2023/05/01 00:36:27;;;;;;;16.50;6.90;;;;;;;5.16;68.68;101295.83;104439;1268;98478;-78
2023/05/01 00:39:13;;;;;;;12.90;6.80;;;;;;;5.12;68.93;101293.91;104375;1271;103086;-79
2023/05/01 00:41:58;;;;;;;10.70;6.10;;;;;;;5.08;69.06;101295.64;104546;1268;100793;-78
2023/05/01 00:44:44;;;;;;;11.30;5.70;;;;;;;5.03;69.28;101293.13;104505;1268;99081;-77
2023/05/01 00:47:29;;;;;;;9.00;6.30;;;;;;;4.96;69.53;101291.62;104619;1271;98005;-78
2023/05/01 00:50:17;;;;;;;12.30;5.90;;;;;;;4.91;70.00;101289.03;104627;1271;98074;-78
2023/05/01 00:53:03;;;;;;;12.00;5.60;;;;;;;4.86;69.77;101290.57;104563;1274;102719;-78
2023/05/01 00:55:49;;;;;;;8.80;4.40;;;;;;;4.81;69.31;101292.25;104551;1272;99128;-79
2023/05/01 00:58:37;;;;;;;8.40;5.80;;;;;;;4.77;69.61;101294.92;104379;1271;98518;-79
2023/05/01 01:01:22;;;;;;;14.70;6.10;;;;;;;4.69;69.33;101294.65;104386;1274;98045;-78
2023/05/01 01:04:08;;;;;;;11.80;6.10;;;;;;;4.61;69.30;101295.20;104510;1273;98503;-78
2023/05/01 01:07:08;;;;;;;9.40;5.10;;;;;;;4.54;69.36;101295.96;104503;1268;101384;-77
2023/05/01 01:10:12;;;;;;;12.60;5.50;;;;;;;4.49;69.50;101293.21;104518;1268;99451;-76
2023/05/01 01:13:07;;;;;;;10.80;6.20;;;;;;;4.45;69.80;101295.19;104351;1274;99065;-78
2023/05/01 01:15:52;;;;;;;10.80;5.40;;;;;;;4.41;69.97;101293.08;104421;1271;98006;-76
2023/05/01 01:18:55;;;;;;;9.20;4.90;;;;;;;4.38;69.99;101291.88;104458;1274;97987;-78
2023/05/01 01:21:46;;;;;;;9.10;5.30;;;;;;;4.35;70.06;101292.70;104454;1271;101366;-78
2023/05/01 01:24:58;;;;;;;12.40;6.00;;;;;;;4.32;69.85;101292.06;104409;1268;99089;-77
2023/05/01 01:28:02;;;;;;;9.30;5.80;;;;;;;4.30;69.98;101289.94;104471;1271;98079;-79
2023/05/01 01:31:28;;;;;;;13.20;5.40;;;;;;;4.30;70.37;101291.06;104393;1268;97960;-77
2023/05/01 01:34:19;;;;;;;11.70;6.40;;;;;;;4.30;70.57;101288.00;104472;1271;97887;-78
2023/05/01 01:37:14;;;;;;;;;;;;;;;4.28;70.59;101292.58;104443;1271;103122;-78
2023/05/01 01:40:05;;;;;;;10.60;4.80;;;;;;;4.24;70.74;101291.85;104536;1268;99124;-78
2023/05/01 01:43:06;;;;;;;9.40;5.30;;;;;;;4.23;70.67;101295.37;104964;1271;97885;-78
2023/05/01 01:46:01;;;;;;;13.30;5.40;;;;;;;4.20;70.13;101299.25;104766;1272;97958;-78
2023/05/01 01:48:49;;;;;;;12.20;6.00;;;;;;;4.17;70.58;101300.98;104460;1272;98629;-76
2023/05/01 01:51:38;;;;;;;11.20;5.70;;;;;;;4.11;70.60;101303.61;104408;1271;102121;-79
2023/05/01 01:54:36;;;;;;;12.00;5.60;;;;;;;4.04;70.77;101303.27;104361;1271;100387;-76
2023/05/01 01:57:23;;;;;;;9.70;6.30;;;;;;;4.00;70.80;101305.38;105163;1272;99320;-76
2023/05/01 02:00:11;;;;;;;11.50;6.10;;;;;;;3.99;71.02;101303.21;104390;1271;98010;-77
2023/05/01 02:03:02;;;;;;;10.00;6.60;;;;;;;3.99;70.93;101297.36;104396;1268;99321;-76
2023/05/01 02:05:50;;;;;;;12.60;6.00;;;;;;;4.01;71.20;101293.30;104363;1274;102267;-77
2023/05/01 02:08:37;;;;;;;14.60;6.70;;;;;;;4.04;71.38;101291.45;104367;1271;101334;-77
2023/05/01 02:11:24;;;;;;;11.10;5.90;;;;;;;4.02;71.10;101291.58;104502;1274;98013;-76
2023/05/01 02:14:10;;;;;;;15.80;7.00;;;;;;;4.00;70.96;101287.73;104453;1274;98012;-78
2023/05/01 02:16:57;;;;;;;12.60;6.10;;;;;;;3.98;70.94;101291.27;104431;1268;98015;-78
2023/05/01 02:19:44;;;;;;;11.40;6.30;;;;;;;3.95;70.99;101292.24;104356;1271;102197;-76
2023/05/01 02:22:31;;;;;;;14.00;7.30;;;;;;;3.92;71.08;101293.67;104450;1271;100309;-77
2023/05/01 02:25:16;;;;;;;13.20;6.40;;;;;;;3.92;71.14;101293.84;104653;1269;99018;-77
2023/05/01 02:28:09;;;;;;;9.80;6.40;;;;;;;3.91;71.35;101293.60;104576;1274;98007;-77
2023/05/01 02:30:56;;;;;;;10.90;5.80;;;;;;;3.89;71.31;101297.66;104374;1274;98718;-76
2023/05/01 02:33:41;;;;;;;11.40;6.90;;;;;;;3.86;71.32;101298.42;104360;1268;102639;-77
2023/05/01 02:36:27;;;;;;;11.60;6.70;;;;;;;3.82;71.06;101291.49;104411;1271;100889;-78
2023/05/01 02:39:13;;;;;;;14.60;7.10;;;;;;;3.76;70.91;101292.56;104403;1271;98260;-77
2023/05/01 02:42:04;;;;;;;12.70;6.60;;;;;;;3.70;70.98;101291.12;104516;1273;97969;-78
2023/05/01 02:44:55;;;;;;;12.80;7.40;;;;;;;3.62;71.01;101292.83;104427;1271;98002;-76
2023/05/01 02:47:44;;;;;;;12.20;7.00;;;;;;;3.54;71.57;101295.98;104383;1271;104000;-79
2023/05/01 02:50:30;;;;;;;13.60;7.30;;;;;;;3.46;71.41;101297.88;104418;1271;99883;-78
2023/05/01 02:53:17;;;;;;;16.50;8.50;;;;;;;3.40;71.93;101299.77;104415;1274;97999;-77
2023/05/01 02:56:07;;;;;;;15.40;7.50;;;;;;;3.34;72.01;101297.79;104328;1271;97917;-76
2023/05/01 02:58:53;;;;;;;13.50;6.90;;;;;;;3.31;72.54;101296.33;104437;1271;98093;-77
2023/05/01 03:01:38;;;;;;;15.00;7.20;;;;;;;3.30;72.77;101299.05;104374;1268;101498;-77
2023/05/01 03:04:24;;;;;;;13.00;6.90;;;;;;;3.25;72.84;101300.80;104363;1271;99180;-77
2023/05/01 03:07:10;;;;;;;15.60;7.40;;;;;;;3.21;72.68;101300.65;104332;1271;99515;-78
2023/05/01 03:09:55;;;;;;;13.70;7.20;;;;;;;3.15;72.74;101302.36;104494;1268;98014;-77
2023/05/01 03:12:41;;;;;;;10.80;6.60;;;;;;;3.07;72.93;101298.93;104535;1272;97984;-78
2023/05/01 03:15:26;;;;;;;11.30;6.20;;;;;;;2.99;73.08;101299.73;104613;1271;101555;-77
2023/05/01 03:18:12;;;;;;;14.30;6.40;;;;;;;2.91;73.26;101301.06;104590;1274;99116;-78
2023/05/01 03:20:58;;;;;;;15.30;7.40;;;;;;;2.87;73.47;101299.63;104546;1268;98760;-77
2023/05/01 03:23:43;;;;;;;9.60;5.50;;;;;;;2.85;73.77;101298.59;104525;1269;98530;-78
2023/05/01 03:26:29;;;;;;;13.60;7.40;;;;;;;2.82;73.71;101298.12;104581;1269;98535;-79
2023/05/01 03:29:14;;;;;;;15.20;5.90;;;;;;;2.78;73.77;101295.27;104593;1268;102403;-77
2023/05/01 03:32:01;;;;;;;9.50;5.90;;;;;;;2.74;73.98;101297.70;104520;1271;99035;-77
2023/05/01 03:34:47;;;;;;;12.30;6.40;;;;;;;2.72;73.88;101297.33;104485;1274;97954;-78
2023/05/01 03:37:32;;;;;;;12.40;6.50;;;;;;;2.68;73.83;101293.56;104496;1274;98501;-76
2023/05/01 03:40:18;;;;;;;9.70;6.20;;;;;;;2.65;74.23;101296.08;104279;1271;97951;-77
2023/05/01 03:43:24;;;;;;;13.10;7.50;;;;;;;2.64;74.45;101296.70;104419;1273;101352;-77
2023/05/01 03:46:10;;;;;;;9.70;5.60;;;;;;;2.64;74.78;101295.84;104375;1271;100344;-78
2023/05/01 03:48:55;;;;;;;11.00;5.90;;;;;;;2.63;74.63;101297.16;104368;1273;99093;-76
2023/05/01 03:51:41;;;;;;;10.70;5.90;;;;;;;2.64;74.72;101297.64;104339;1273;98067;-76
2023/05/01 03:54:27;;;;;;;10.10;6.00;;;;;;;2.65;74.83;101297.86;104367;1268;98037;-78
2023/05/01 03:57:19;;;;;;;9.90;5.70;;;;;;;2.67;75.19;101296.49;104411;1272;101361;-77
2023/05/01 04:00:06;;;;;;;12.10;5.90;;;;;;;2.68;75.45;101295.73;104385;1271;99100;-77
2023/05/01 04:03:01;;;;;;;12.20;5.60;;;;;;;2.70;75.73;101293.94;104397;1268;98972;-78
2023/05/01 04:05:47;;;;;;;12.70;6.20;;;;;;;2.73;75.72;101293.03;104286;1272;97980;-78
2023/05/01 04:08:33;;;;;;;12.10;5.60;;;;;;;2.73;75.95;101295.45;104432;1274;99677;-77
2023/05/01 04:11:19;;;;;;;12.80;5.80;;;;;;;2.76;76.23;101295.07;104560;1273;102102;-78
2023/05/01 04:14:05;;;;;;;11.20;5.70;;;;;;;2.81;76.30;101294.99;104643;1271;99800;-77
2023/05/01 04:16:51;;;;;;;10.90;5.80;;;;;;;2.87;76.57;101296.52;104620;1268;99302;-77
2023/05/01 04:19:37;;;;;;;11.00;6.60;;;;;;;2.93;76.89;101291.27;104595;1271;98000;-78
2023/05/01 04:22:22;;;;;;;13.80;6.60;;;;;;;2.97;76.91;101291.27;104520;1274;98002;-75
2023/05/01 04:25:09;;;;;;;11.60;6.20;;;;;;;3.02;77.17;101292.27;104606;1288;102679;-77
2023/05/01 04:27:56;;;;;;;12.70;6.90;;;;;;;3.07;77.34;101292.73;104653;1269;99123;-78
2023/05/01 04:30:41;;;;;;;11.90;6.20;;;;;;;3.15;77.86;101290.58;104545;1268;97965;-78
2023/05/01 04:33:27;;;;;;;12.60;7.30;;;;;;;3.21;78.06;101292.54;104472;1271;97908;-78
2023/05/01 04:36:13;;;;;;;11.20;7.20;;;;;;;3.22;78.09;101287.67;104550;1274;98495;-78
2023/05/01 04:38:59;;;;;;;11.60;7.70;;;;;;;3.24;78.46;101285.36;104405;1271;101353;-78
2023/05/01 04:41:45;;;;;;;16.50;7.70;;;;;;;3.28;78.79;101284.91;104601;1268;99552;-77
2023/05/01 04:44:33;;;;;;;13.70;6.30;;;;;;;3.32;79.17;101288.45;104582;1271;97985;-78
2023/05/01 04:47:18;;;;;;;11.10;6.60;;;;;;;3.40;79.18;101287.64;104885;1272;98014;-78
2023/05/01 04:50:05;;;;;;;10.60;5.80;;;;;;;3.49;79.38;101284.76;104934;1272;98507;-79
2023/05/01 04:52:51;;;;;;;10.60;6.60;;;;;;;3.58;79.67;101285.95;104867;1274;101986;-79
2023/05/01 04:55:37;;;;;;;10.90;6.80;;;;;;;3.65;79.72;101285.83;104899;1268;99191;-79
2023/05/01 04:58:27;;;;;;;19.20;7.40;;;;;;;3.77;80.07;101286.83;104838;1268;98997;-79
2023/05/01 05:01:17;;;;;;;12.00;7.00;;;;;;;3.89;80.21;101287.20;104627;1275;98072;-78
2023/05/01 05:04:04;;;;;;;11.50;7.10;;;;;;;4.01;80.61;101288.88;104554;1273;98018;-78
2023/05/01 05:06:49;;;;;;;11.10;7.20;;;;;;;4.14;80.97;101286.39;104487;1269;103380;-77
2023/05/01 05:09:36;;;;;;;14.80;7.80;;;;;;;4.28;81.43;101281.30;104518;1268;99085;-77
2023/05/01 05:12:21;;;;;;;14.50;8.50;;;;;;;4.42;81.29;101284.51;104577;1273;98141;-78
2023/05/01 05:15:07;;;;;;;17.60;9.90;;;;;;;4.56;81.36;101286.05;104561;1273;98876;-78
2023/05/01 05:17:54;;;;;;;17.50;9.10;;;;;;;4.71;80.99;101285.29;104545;1274;98605;-77
2023/05/01 05:20:40;;;;;;;15.80;9.10;;;;;;;4.85;80.89;101285.13;104556;1273;102088;-77
2023/05/01 05:23:25;;;;;;;18.50;9.20;;;;;;;4.99;80.66;101282.29;104414;1273;100436;-80
2023/05/01 05:26:10;;;;;;;16.00;9.00;;;;;;;5.14;80.56;101285.59;104388;1274;99930;-78
2023/05/01 05:28:56;;;;;;;17.90;9.30;;;;;;;5.29;80.25;101285.30;104542;1272;98068;-79
2023/05/01 05:31:42;;;;;;;20.60;10.00;;;;;;;5.44;80.04;101282.67;104592;1273;98532;-78
2023/05/01 05:34:28;;;;;;;15.00;8.40;;;;;;;5.60;79.75;101283.90;104379;1271;101373;-78
2023/05/01 05:37:14;;;;;;;20.30;9.10;;;;;;;5.75;79.29;101281.79;104369;1274;99129;-77
2023/05/01 05:40:05;;;;;;;17.00;8.40;;;;;;;5.91;79.19;101282.48;104430;1285;97981;-78
2023/05/01 05:42:56;;;;;;;15.50;7.90;;;;;;;6.07;78.68;101280.25;104627;1271;98096;-77
2023/05/01 05:45:43;;;;;;;21.70;8.60;;;;;;;6.23;77.90;101281.57;104505;1274;98622;-78
2023/05/01 05:48:29;;;;;;;16.50;7.70;;;;;;;6.40;77.86;101278.10;104562;1272;101488;-77
2023/05/01 05:51:15;;;;;;;11.70;6.50;;;;;;;6.55;77.13;101276.47;104575;1270;99695;-80
2023/05/01 05:54:01;;;;;;;14.10;7.50;;;;;;;6.69;76.26;101274.96;104444;1274;98984;-78
2023/05/01 05:56:48;;;;;;;13.00;6.80;;;;;;;6.83;75.50;101273.79;104578;1268;97928;-78
2023/05/01 05:59:35;;;;;;;16.10;6.70;;;;;;;6.98;74.55;101275.15;104725;1271;97991;-78
2023/05/01 06:02:21;;;;;;;13.80;7.00;;;;;;;7.11;74.12;101277.92;104934;1269;102609;-78
2023/05/01 06:05:07;;;;;;;13.80;6.90;;;;;;;7.25;73.54;101279.48;105221;1274;99725;-79
2023/05/01 06:07:53;;;;;;;19.90;6.90;;;;;;;7.38;73.43;101281.50;105355;1273;98145;-81
2023/05/01 06:10:42;;;;;;;12.00;6.30;;;;;;;7.51;72.26;101280.24;105073;1271;97996;-79
2023/05/01 06:13:27;;;;;;;12.90;6.40;;;;;;;7.64;72.17;101277.29;104461;1268;98015;-78
2023/05/01 06:16:13;;;;;;;11.60;5.20;;;;;;;7.80;71.60;101281.64;104698;1267;101376;-79
2023/05/01 06:18:59;;;;;;;16.70;8.20;;;;;;;7.94;70.88;101282.17;105177;1272;99830;-80
2023/05/01 06:21:45;;;;;;;13.90;7.00;;;;;;;8.06;69.80;101281.79;105249;1268;98430;-84
2023/05/01 06:24:31;;;;;;;14.00;5.00;;;;;;;8.20;69.27;101284.34;105237;1274;97955;-80
2023/05/01 06:27:18;;;;;;;8.20;4.20;;;;;;;8.33;68.22;101285.77;104669;1273;98182;-80
2023/05/01 06:30:04;;;;;;;8.40;4.60;;;;;;;8.46;67.44;101282.83;105384;1268;102177;-84
2023/05/01 06:32:50;;;;;;;8.00;4.50;;;;;;;8.59;67.03;101287.02;105296;1279;99095;-81
2023/05/01 06:35:38;;;;;;;10.50;4.60;;;;;;;8.72;66.15;101287.64;104714;1275;97984;-82
2023/05/01 06:38:25;;;;;;;7.00;4.20;;;;;;;8.85;65.96;101289.48;105545;1271;97916;-81
2023/05/01 06:41:10;;;;;;;7.90;4.10;;;;;;;8.99;65.37;101288.71;105378;1273;98085;-81
2023/05/01 06:43:57;;;;;;;9.70;4.10;;;;;;;9.10;64.04;101282.92;105479;1268;101781;-80
2023/05/01 06:46:42;;;;;;;8.60;4.30;;;;;;;9.19;63.72;101281.89;104828;1268;100118;-78
2023/05/01 06:49:28;;;;;;;9.80;3.80;;;;;;;9.33;63.52;101280.47;104892;1269;98015;-84
2023/05/01 06:52:14;;;;;;;8.00;3.80;;;;;;;9.43;63.30;101276.52;105370;1268;98421;-85
2023/05/01 06:55:00;;;;;;;8.40;3.70;;;;;;;9.54;62.64;101273.23;105324;1274;98063;-85
2023/05/01 06:57:45;;;;;;;5.30;3.40;;;;;;;9.65;61.74;101272.76;105255;1274;101380;-83
2023/05/01 07:00:33;;;;;;;12.70;3.90;;;;;;;9.74;61.26;101262.84;105193;1277;99250;-86
2023/05/01 07:03:18;;;;;;;6.30;3.60;;;;;;;9.84;60.94;101268.30;105316;1273;98042;-86
2023/05/01 07:06:04;;;;;;;7.20;4.30;;;;;;;9.93;60.24;101269.33;105770;1275;98478;-87
2023/05/01 07:08:50;;;;;;;10.20;4.40;;;;;;;10.01;60.10;101268.05;105765;1270;98090;-88
2023/05/01 07:11:37;;;;;;;4.60;3.10;;;;;;;10.10;59.72;101261.56;105773;1268;102784;-89
2023/05/01 07:14:23;;;;;;;8.90;3.80;;;;;;;10.18;59.75;101257.65;105886;1270;99781;-81
2023/05/01 07:17:08;;;;;;;9.00;3.90;;;;;;;10.26;58.83;101252.89;105567;1270;98381;-81
2023/05/01 07:19:54;;;;;;;6.50;3.90;;;;;;;10.33;58.51;101252.98;105403;1269;97888;-79
2023/05/01 07:22:40;;;;;;;6.70;3.80;;;;;;;10.40;58.70;101252.37;105416;1273;99733;-81
2023/05/01 07:25:26;;;;;;;8.40;3.20;;;;;;;10.47;57.89;101255.96;105399;1273;103586;-79
2023/05/01 07:28:11;;;;;;;6.00;3.30;;;;;;;10.57;57.68;101256.36;105505;1268;99136;-84
2023/05/01 07:31:00;;;;;;;6.80;3.60;;;;;;;10.64;57.31;101259.26;105441;1273;97969;-84
2023/05/01 07:33:46;;;;;;;12.20;3.50;;;;;;;10.72;56.99;101256.89;105505;1276;98042;-88
2023/05/01 07:36:32;;;;;;;7.60;3.20;;;;;;;10.82;57.62;101257.60;105148;1272;97999;-83
2023/05/01 07:39:19;;;;;;;5.90;2.80;;;;;;;10.92;56.58;101257.58;105224;1275;102618;-85
2023/05/01 07:42:05;;;;;;;5.40;3.40;;;;;;;10.98;56.10;101253.08;105150;1273;99210;-82
2023/05/01 07:44:50;;;;;;;8.80;3.50;;;;;;;11.07;56.07;101254.73;105243;1273;98077;-80
2023/05/01 07:47:36;;;;;;;7.10;2.90;;;;;;;11.15;56.34;101253.79;105287;1273;97986;-83
2023/05/01 07:50:22;;;;;;;8.40;3.60;;;;;;;11.26;56.17;101254.02;105531;1273;98512;-83
2023/05/01 07:53:08;;;;;;;6.80;3.10;;;;;;;11.34;55.90;101256.44;105632;1273;103527;-84
2023/05/01 07:56:05;;;;;;;5.20;3.30;;;;;;;11.42;55.39;101253.52;105600;1272;99052;-83
2023/05/01 07:58:50;;;;;;;6.30;3.00;;;;;;;11.47;54.79;101247.59;105256;1276;97906;-84
2023/05/01 08:01:37;;;;;;;6.60;3.00;;;;;;;11.52;54.89;101249.13;105477;1281;97914;-84
2023/05/01 08:04:22;;;;;;;8.80;3.60;;;;;;;11.61;55.22;101246.50;105783;1274;98417;-87
2023/05/01 08:07:08;;;;;;;9.50;3.30;;;;;;;11.70;55.42;101243.30;105251;1270;102657;-84
2023/05/01 08:09:53;;;;;;;6.40;3.70;;;;;;;11.81;54.90;101243.83;105360;1270;100832;-84
2023/05/01 08:12:39;;;;;;;6.90;3.00;;;;;;;11.91;55.24;101249.52;104739;1271;98007;-80
2023/05/01 08:15:25;;;;;;;10.80;3.80;;;;;;;12.02;54.74;101248.64;105179;1274;98066;-85
2023/05/01 08:18:11;;;;;;;7.60;3.30;;;;;;;12.10;54.61;101249.86;105372;1274;98410;-83
2023/05/01 08:20:56;;;;;;;9.90;3.10;;;;;;;12.17;54.25;101249.12;105519;1270;102597;-81
2023/05/01 08:23:41;;;;;;;6.20;3.50;;;;;;;12.23;54.02;101245.52;105428;1273;100341;-81
2023/05/01 08:26:27;;;;;;;5.10;3.50;;;;;;;12.30;53.57;101244.83;105549;1270;99040;-83
2023/05/01 08:29:13;;;;;;;6.60;3.60;;;;;;;12.37;53.32;101247.66;105709;1273;99237;-84
2023/05/01 08:31:58;;;;;;;5.80;3.00;;;;;;;12.46;53.36;101248.14;105649;1270;97893;-83
2023/05/01 08:34:43;;;;;;;8.20;3.40;;;;;;;12.55;53.21;101248.02;105818;1274;101297;-81
2023/05/01 08:37:29;;;;;;;5.10;3.00;;;;;;;12.62;52.63;101247.55;105827;1270;100061;-79
2023/05/01 08:40:14;;;;;;;6.90;3.00;;;;;;;12.68;52.22;101247.55;104641;1273;99503;-78
2023/05/01 08:43:01;;;;;;;9.40;3.60;;;;;;;12.74;51.92;101250.86;104730;1271;97889;-79
2023/05/01 08:45:47;;;;;;;8.50;2.90;;;;;;;12.83;52.30;101248.52;104674;1272;98431;-79
2023/05/01 08:48:35;;;;;;;9.40;3.10;;;;;;;12.91;52.17;101247.18;104633;1270;102547;-80
2023/05/01 08:51:22;;;;;;;8.20;2.90;;;;;;;12.98;51.66;101246.66;104959;1273;100301;-79
2023/05/01 08:54:09;;;;;;;7.10;3.50;;;;;;;13.05;50.93;101241.36;104604;1274;98127;-79
2023/05/01 08:57:02;;;;;;;7.10;3.10;;;;;;;13.09;50.60;101232.45;104624;1273;98001;-78
2023/05/01 08:59:49;;;;;;;5.30;2.80;;;;;;;13.14;51.63;101233.37;104649;1271;97941;-79
2023/05/01 09:02:37;;;;;;;6.90;2.80;;;;;;;13.24;51.26;101232.70;104601;1273;101525;-79
2023/05/01 09:05:22;;;;;;;4.80;2.90;;;;;;;13.34;50.84;101225.41;104558;1267;100974;-77
2023/05/01 09:08:08;;;;;;;10.80;3.20;;;;;;;13.43;51.45;101225.81;104445;1276;97980;-77
2023/05/01 09:10:57;;;;;;;6.20;2.90;;;;;;;13.52;51.08;101227.41;104515;1267;98089;-78
2023/05/01 09:13:42;;;;;;;6.90;3.40;;;;;;;13.55;49.97;101218.73;104450;1276;98655;-78
2023/05/01 09:16:28;;;;;;;6.60;2.80;;;;;;;13.58;50.12;101211.94;104482;1270;101354;-78
2023/05/01 09:19:14;;;;;;;4.80;2.80;;;;;;;13.63;49.97;101213.60;104439;1282;109555;-78
2023/05/01 09:22:00;;;;;;;8.70;3.00;;;;;;;13.73;49.96;101214.13;104372;1272;98071;-78
2023/05/01 09:24:45;;;;;;;5.80;2.80;;;;;;;13.84;49.90;101214.36;104487;1273;98496;-77
2023/05/01 09:27:34;;;;;;;10.20;2.40;;;;;;;13.94;49.93;101208.80;104512;1272;97998;-78
2023/05/01 09:30:34;;;;;;;6.40;2.30;;;;;;;14.04;49.14;101204.88;104467;1281;101358;-78
2023/05/01 09:33:19;;;;;;;5.40;2.60;;;;;;;14.13;48.65;101201.30;104874;1273;100108;-77
2023/05/01 09:36:05;;;;;;;6.30;2.70;;;;;;;14.24;48.93;101200.73;104418;1282;99292;-77
2023/05/01 09:38:51;;;;;;;11.00;3.20;;;;;;;14.34;49.22;101197.05;104487;1270;99234;-77
2023/05/01 09:41:50;;;;;;;4.10;2.30;;;;;;;14.42;48.76;101197.91;104496;1271;98435;-79
2023/05/01 09:44:42;;;;;;;7.00;3.00;;;;;;;14.50;47.76;101195.23;104477;1272;101360;-77
2023/05/01 09:47:30;;;;;;;4.90;2.70;;;;;;;14.56;47.31;101191.77;104512;1268;99100;-78
2023/05/01 09:50:33;;;;;;;5.70;2.80;;;;;;;14.60;47.07;101190.48;104487;1268;99072;-77
2023/05/01 09:53:18;;;;;;;5.10;2.80;;;;;;;14.67;46.86;101187.20;104402;1274;98558;-78
2023/05/01 09:56:04;;;;;;;4.50;2.40;;;;;;;14.73;45.77;101184.90;104622;1271;98018;-78
2023/05/01 09:58:51;;;;;;;5.60;2.60;;;;;;;14.73;45.78;101183.31;104801;1273;101378;-79
2023/05/01 10:01:38;;;;;;;8.00;2.40;;;;;;;14.78;46.87;101178.25;104808;1270;99102;-80
2023/05/01 10:04:34;;;;;;;6.50;2.40;;;;;;;14.88;46.28;101180.95;105318;1270;98509;-80
2023/05/01 10:07:19;;;;;;;5.80;2.30;;;;;;;14.99;46.18;101180.42;104625;1270;97980;-79
2023/05/01 10:10:19;;;;;;;4.60;2.20;;;;;;;15.04;45.42;101177.70;104504;1270;98597;-80
2023/05/01 10:13:15;;;;;;;4.80;2.10;;;;;;;15.05;45.05;101174.71;104743;1270;102632;-80
2023/05/01 10:16:06;;;;;;;5.10;2.20;;;;;;;15.10;44.61;101173.83;104661;1270;99238;-80
2023/05/01 10:18:53;;;;;;;7.40;2.70;;;;;;;15.21;44.04;101169.70;104671;1273;98607;-76
2023/05/01 10:21:39;;;;;;;4.70;2.60;;;;;;;15.32;44.51;101166.05;104487;1271;98040;-77
2023/05/01 10:24:24;;;;;;;5.00;2.70;;;;;;;15.42;44.08;101159.65;104469;1270;98502;-77
2023/05/01 10:27:11;;;;;;;5.90;2.20;;;;;;;15.44;42.72;101152.35;104575;1270;102176;-78
2023/05/01 10:30:03;;;;;;;8.00;2.30;;;;;;;15.37;42.31;101148.98;104762;1271;100164;-77
2023/05/01 10:32:51;;;;;;;5.10;2.30;;;;;;;15.37;43.20;101146.76;104550;1273;99039;-78
2023/05/01 10:35:41;;;;;;;5.30;2.40;;;;;;;15.41;42.22;101143.60;104622;1270;97988;-77
2023/05/01 10:38:35;;;;;;;7.50;2.40;;;;;;;15.44;43.20;101140.02;104603;1268;97919;-77
2023/05/01 10:42:03;;;;;;;5.80;2.60;;;;;;;15.57;43.64;101137.67;104578;1273;102279;-79
2023/05/01 10:44:48;;;;;;;3.20;2.10;;;;;;;15.72;43.64;101135.60;104910;1270;99110;-80
2023/05/01 10:47:34;;;;;;;6.30;2.60;;;;;;;15.80;43.16;101135.02;104623;1281;99010;-79
2023/05/01 10:50:20;;;;;;;7.50;2.70;;;;;;;15.84;43.55;101131.53;104920;1270;97975;-79
2023/05/01 10:53:08;;;;;;;7.00;2.60;;;;;;;15.92;43.13;101129.16;104796;1273;98448;-81
2023/05/01 10:55:54;;;;;;;7.10;2.60;;;;;;;15.97;42.86;101123.17;104812;1270;101339;-79
2023/05/01 10:58:39;;;;;;;5.00;2.70;;;;;;;16.03;42.62;101124.88;104707;1267;100499;-79
2023/05/01 11:01:39;;;;;;;3.90;2.40;;;;;;;16.12;42.74;101124.33;104540;1268;98987;-79
2023/05/01 11:04:24;;;;;;;6.80;2.70;;;;;;;16.18;42.29;101119.66;104604;1273;98119;-78
2023/05/01 11:07:14;;;;;;;9.70;2.50;;;;;;;16.26;42.51;101116.78;104554;1271;99765;-78
2023/05/01 11:10:00;;;;;;;9.40;4.30;;;;;;;16.34;42.40;101115.69;104530;1271;101443;-78
2023/05/01 11:12:52;;;;;;;7.20;3.40;;;;;;;16.36;41.61;101112.92;104597;1270;99259;-79
2023/05/01 11:15:39;;;;;;;;;;;;;;;16.35;41.37;101112.34;104548;1268;97993;-78
2023/05/01 11:18:44;;;;;;;4.90;2.20;;;;;;;16.40;41.48;101110.30;104473;1271;97966;-79
2023/05/01 11:21:37;;;;;;;4.30;1.80;;;;;;;16.47;41.42;101104.11;104645;1271;97983;-77
2023/05/01 11:24:32;;;;;;;7.60;2.30;;;;;;;16.54;40.92;101099.14;104624;1267;102029;-79
2023/05/01 11:27:18;;;;;;;5.30;2.40;;;;;;;16.60;40.38;101094.95;104618;1274;99079;-79
2023/05/01 11:30:04;;;;;;;7.80;2.40;;;;;;;16.63;41.17;101091.77;104563;1268;98006;-79
2023/05/01 11:32:51;;;;;;;3.10;1.90;;;;;;;16.73;40.89;101091.91;104619;1273;98125;-79
2023/05/01 11:35:37;;;;;;;6.60;1.90;;;;;;;16.80;40.01;101083.12;104762;1273;97888;-78
2023/05/01 11:38:23;;;;;;;5.10;2.20;;;;;;;16.85;39.68;101086.05;104977;1271;102095;-80
2023/05/01 11:41:09;;;;;;;4.60;2.10;;;;;;;16.90;39.27;101080.66;104788;1271;99130;-79
2023/05/01 11:43:57;;;;;;;4.70;2.10;;;;;;;16.94;39.94;101073.77;104632;1271;98969;-78
2023/05/01 11:46:42;;;;;;;4.30;1.70;;;;;;;17.02;39.74;101071.77;104506;1271;97995;-78
2023/05/01 11:49:28;;;;;;;5.20;2.50;;;;;;;17.10;39.48;101066.42;104560;1282;99443;-77
2023/05/01 11:52:13;;;;;;;5.30;2.10;;;;;;;17.16;39.09;101065.81;104933;1270;101396;-79
2023/05/01 11:54:59;;;;;;;6.30;2.20;;;;;;;17.17;38.99;101060.23;104557;1271;99100;-77
2023/05/01 11:57:50;;;;;;;6.40;2.70;;;;;;;17.17;39.59;101055.35;104587;1273;97902;-77
2023/05/01 12:00:39;;;;;;;7.30;2.40;;;;;;;17.19;38.89;101054.02;104513;1274;98043;-77
2023/05/01 12:03:24;;;;;;;4.80;2.00;;;;;;;17.14;38.11;101048.55;104511;1273;98057;-78
2023/05/01 12:06:12;;;;;;;3.70;2.00;;;;;;;17.10;38.54;101042.87;104562;1273;102668;-79
2023/05/01 12:08:57;;;;;;;5.00;2.30;;;;;;;17.15;39.63;101044.79;104542;1268;100345;-79
2023/05/01 12:11:45;;;;;;;6.80;2.00;;;;;;;17.29;39.65;101035.89;106396;1265;99209;-77
2023/05/01 12:14:30;;;;;;;5.10;1.80;;;;;;;17.43;39.64;101034.52;105168;1268;97889;-78
2023/05/01 12:17:15;;;;;;;6.00;2.40;;;;;;;17.56;39.01;101034.20;106460;1264;98016;-79
2023/05/01 12:20:03;;;;;;;4.30;2.00;;;;;;;17.67;39.07;101030.90;104972;1269;102098;-81
2023/05/01 12:22:49;;;;;;;4.00;1.80;;;;;;;17.79;39.06;101026.07;107002;1266;99572;-80
2023/05/01 12:25:38;;;;;;;4.40;2.10;;;;;;;17.90;38.03;101024.19;104728;1273;97981;-78
2023/05/01 12:28:25;;;;;;;4.70;1.60;;;;;;;17.96;37.84;101020.41;106085;1268;97972;-78
2023/05/01 12:31:12;;;;;;;4.70;1.90;;;;;;;18.02;37.81;101019.95;104661;1268;98716;-77
2023/05/01 12:34:02;;;;;;;4.00;1.90;;;;;;;18.09;37.83;101021.42;104593;1271;102516;-79
2023/05/01 12:36:54;;;;;;;4.10;2.30;;;;;;;18.18;38.80;101017.23;104486;1270;99166;-78
2023/05/01 12:39:43;;;;;;;4.30;2.00;;;;;;;18.28;37.90;101013.70;104515;1270;99111;-77
2023/05/01 12:42:28;;;;;;;4.30;1.80;;;;;;;18.33;37.60;101011.14;104524;1267;98076;-80
2023/05/01 12:45:14;;;;;;;6.50;2.30;;;;;;;18.39;37.47;101005.60;104547;1269;98493;-79
2023/05/01 12:48:00;;;;;;;4.30;2.00;;;;;;;18.44;36.93;101001.34;104502;1269;102604;-78
2023/05/01 12:50:53;;;;;;;7.60;2.20;;;;;;;18.48;36.88;100994.23;104822;1270;100166;-79